sensor_id;sensor_type;location;lat;lon;timestamp;temperature;humidity
18876;DHT22;9570;50.854;13.778;2023-10-09T00:00:16;11.00;99.90
18876;DHT22;9570;50.854;13.778;2023-10-09T00:03:13;11.10;99.90
18876;DHT22;9570;50.854;13.778;2023-10-09T00:05:39;11.10;99.90
18876;DHT22;9570;50.854;13.778;2023-10-09T00:08:16;11.00;99.90
18876;DHT22;9570;50.854;13.778;2023-10-09T00:10:50;11.00;99.90
18876;DHT22;9570;50.854;13.778;2023-10-09T00:13:23;11.00;99.90
18876;DHT22;9570;50.854;13.778;2023-10-09T00:15:57;11.10;99.90
18876;DHT22;9570;50.854;13.778;2023-10-09T00:18:27;11.10;99.90
18876;DHT22;9570;50.854;13.778;2023-10-09T00:20:58;11.20;99.90
18876;DHT22;9570;50.854;13.778;2023-10-09T00:23:39;11.20;99.90
18876;DHT22;9570;50.854;13.778;2023-10-09T00:26:09;11.20;99.90
18876;DHT22;9570;50.854;13.778;2023-10-09T00:28:36;11.30;99.90
18876;DHT22;9570;50.854;13.778;2023-10-09T00:31:04;11.30;99.90
18876;DHT22;9570;50.854;13.778;2023-10-09T00:33:32;11.40;99.90
18876;DHT22;9570;50.854;13.778;2023-10-09T00:36:02;11.40;99.90
18876;DHT22;9570;50.854;13.778;2023-10-09T00:38:34;11.40;99.90
18876;DHT22;9570;50.854;13.778;2023-10-09T00:41:01;11.30;99.90
18876;DHT22;9570;50.854;13.778;2023-10-09T00:43:36;11.20;99.90
18876;DHT22;9570;50.854;13.778;2023-10-09T00:46:04;11.40;99.90
18876;DHT22;9570;50.854;13.778;2023-10-09T00:48:33;11.50;99.90
18876;DHT22;9570;50.854;13.778;2023-10-09T00:51:04;11.50;99.90
18876;DHT22;9570;50.854;13.778;2023-10-09T00:53:43;11.50;99.90
18876;DHT22;9570;50.854;13.778;2023-10-09T00:56:09;11.60;99.90
18876;DHT22;9570;50.854;13.778;2023-10-09T00:58:59;11.60;99.90
18876;DHT22;9570;50.854;13.778;2023-10-09T01:01:32;11.70;99.90
18876;DHT22;9570;50.854;13.778;2023-10-09T01:04:06;11.60;99.90
18876;DHT22;9570;50.854;13.778;2023-10-09T01:06:42;11.40;99.90
18876;DHT22;9570;50.854;13.778;2023-10-09T01:09:11;11.40;99.90
18876;DHT22;9570;50.854;13.778;2023-10-09T01:11:37;11.40;99.90
18876;DHT22;9570;50.854;13.778;2023-10-09T01:14:26;11.50;99.90
18876;DHT22;9570;50.854;13.778;2023-10-09T01:16:51;11.40;99.90
18876;DHT22;9570;50.854;13.778;2023-10-09T01:19:20;11.40;99.90
18876;DHT22;9570;50.854;13.778;2023-10-09T01:21:50;11.50;99.90
18876;DHT22;9570;50.854;13.778;2023-10-09T01:24:15;11.70;99.90
18876;DHT22;9570;50.854;13.778;2023-10-09T01:26:42;11.70;99.90
18876;DHT22;9570;50.854;13.778;2023-10-09T01:29:22;11.60;99.90
18876;DHT22;9570;50.854;13.778;2023-10-09T01:31:49;11.80;99.90
18876;DHT22;9570;50.854;13.778;2023-10-09T01:34:24;11.90;99.90
18876;DHT22;9570;50.854;13.778;2023-10-09T01:36:51;12.00;99.90
18876;DHT22;9570;50.854;13.778;2023-10-09T01:39:19;12.20;99.90
18876;DHT22;9570;50.854;13.778;2023-10-09T01:41:57;12.20;99.90
18876;DHT22;9570;50.854;13.778;2023-10-09T01:44:31;12.20;99.90
18876;DHT22;9570;50.854;13.778;2023-10-09T01:47:03;12.20;99.90
18876;DHT22;9570;50.854;13.778;2023-10-09T01:49:40;12.20;99.90
18876;DHT22;9570;50.854;13.778;2023-10-09T01:52:09;12.20;99.90
18876;DHT22;9570;50.854;13.778;2023-10-09T01:54:36;12.10;99.90
18876;DHT22;9570;50.854;13.778;2023-10-09T01:57:03;12.10;99.90
18876;DHT22;9570;50.854;13.778;2023-10-09T01:59:32;12.10;99.90
18876;DHT22;9570;50.854;13.778;2023-10-09T02:01:57;12.20;99.90
18876;DHT22;9570;50.854;13.778;2023-10-09T02:04:37;12.30;99.90
18876;DHT22;9570;50.854;13.778;2023-10-09T02:07:05;12.40;99.90
18876;DHT22;9570;50.854;13.778;2023-10-09T02:09:33;12.40;99.90
18876;DHT22;9570;50.854;13.778;2023-10-09T02:12:00;12.40;99.90
18876;DHT22;9570;50.854;13.778;2023-10-09T02:14:26;12.40;99.90
18876;DHT22;9570;50.854;13.778;2023-10-09T02:16:52;12.40;99.90
18876;DHT22;9570;50.854;13.778;2023-10-09T02:19:43;12.50;99.90
18876;DHT22;9570;50.854;13.778;2023-10-09T02:22:13;12.50;99.90
18876;DHT22;9570;50.854;13.778;2023-10-09T02:24:40;12.50;99.90
18876;DHT22;9570;50.854;13.778;2023-10-09T02:27:16;12.50;99.90
18876;DHT22;9570;50.854;13.778;2023-10-09T02:30:05;12.40;99.90
18876;DHT22;9570;50.854;13.778;2023-10-09T02:32:44;12.50;99.90
18876;DHT22;9570;50.854;13.778;2023-10-09T02:35:13;12.50;99.90
18876;DHT22;9570;50.854;13.778;2023-10-09T02:38:05;12.40;99.90
18876;DHT22;9570;50.854;13.778;2023-10-09T02:40:40;12.40;99.90
18876;DHT22;9570;50.854;13.778;2023-10-09T02:43:27;12.40;99.90
18876;DHT22;9570;50.854;13.778;2023-10-09T02:45:53;12.30;99.90
18876;DHT22;9570;50.854;13.778;2023-10-09T02:48:18;12.30;99.90
18876;DHT22;9570;50.854;13.778;2023-10-09T02:50:52;12.40;99.90
18876;DHT22;9570;50.854;13.778;2023-10-09T02:53:19;12.40;99.90
18876;DHT22;9570;50.854;13.778;2023-10-09T02:55:45;12.40;99.90
18876;DHT22;9570;50.854;13.778;2023-10-09T02:58:29;12.30;99.90
18876;DHT22;9570;50.854;13.778;2023-10-09T03:00:58;12.30;99.90
18876;DHT22;9570;50.854;13.778;2023-10-09T03:03:23;12.30;99.90
18876;DHT22;9570;50.854;13.778;2023-10-09T03:05:50;12.30;99.90
18876;DHT22;9570;50.854;13.778;2023-10-09T03:08:16;12.40;99.90
18876;DHT22;9570;50.854;13.778;2023-10-09T03:10:44;12.40;99.90
18876;DHT22;9570;50.854;13.778;2023-10-09T03:13:10;12.40;99.90
18876;DHT22;9570;50.854;13.778;2023-10-09T03:15:35;12.50;99.90
18876;DHT22;9570;50.854;13.778;2023-10-09T03:18:04;12.50;99.90
18876;DHT22;9570;50.854;13.778;2023-10-09T03:20:30;12.40;99.90
18876;DHT22;9570;50.854;13.778;2023-10-09T03:22:56;12.50;99.90
18876;DHT22;9570;50.854;13.778;2023-10-09T03:25:23;12.50;99.90
18876;DHT22;9570;50.854;13.778;2023-10-09T03:27:50;12.50;99.90
18876;DHT22;9570;50.854;13.778;2023-10-09T03:30:18;12.50;99.90
18876;DHT22;9570;50.854;13.778;2023-10-09T03:32:48;12.50;99.90
18876;DHT22;9570;50.854;13.778;2023-10-09T03:35:17;12.50;99.90
18876;DHT22;9570;50.854;13.778;2023-10-09T03:37:50;12.50;99.90
18876;DHT22;9570;50.854;13.778;2023-10-09T03:40:15;12.50;99.90
18876;DHT22;9570;50.854;13.778;2023-10-09T03:42:44;12.50;99.90
18876;DHT22;9570;50.854;13.778;2023-10-09T03:45:09;12.50;99.90
18876;DHT22;9570;50.854;13.778;2023-10-09T03:47:44;12.50;99.90
18876;DHT22;9570;50.854;13.778;2023-10-09T03:50:13;12.60;99.90
18876;DHT22;9570;50.854;13.778;2023-10-09T03:53:04;12.60;99.90
18876;DHT22;9570;50.854;13.778;2023-10-09T03:55:37;12.70;99.90
18876;DHT22;9570;50.854;13.778;2023-10-09T03:58:03;12.60;99.90
18876;DHT22;9570;50.854;13.778;2023-10-09T04:00:29;12.70;99.90
18876;DHT22;9570;50.854;13.778;2023-10-09T04:02:56;12.50;99.90
18876;DHT22;9570;50.854;13.778;2023-10-09T04:05:23;12.60;99.90
18876;DHT22;9570;50.854;13.778;2023-10-09T04:07:48;12.60;99.90
18876;DHT22;9570;50.854;13.778;2023-10-09T04:10:14;12.60;99.90
18876;DHT22;9570;50.854;13.778;2023-10-09T04:13:08;12.70;99.90
18876;DHT22;9570;50.854;13.778;2023-10-09T04:15:37;12.60;99.90
18876;DHT22;9570;50.854;13.778;2023-10-09T04:18:03;12.70;99.90
18876;DHT22;9570;50.854;13.778;2023-10-09T04:20:31;12.70;99.90
18876;DHT22;9570;50.854;13.778;2023-10-09T04:22:59;12.70;99.90
18876;DHT22;9570;50.854;13.778;2023-10-09T04:25:30;12.70;99.90
18876;DHT22;9570;50.854;13.778;2023-10-09T04:28:06;12.70;99.90
18876;DHT22;9570;50.854;13.778;2023-10-09T04:30:38;12.70;99.90
18876;DHT22;9570;50.854;13.778;2023-10-09T04:33:12;12.80;99.90
18876;DHT22;9570;50.854;13.778;2023-10-09T04:36:04;12.80;99.90
18876;DHT22;9570;50.854;13.778;2023-10-09T04:38:45;12.90;99.90
18876;DHT22;9570;50.854;13.778;2023-10-09T04:41:39;13.00;99.90
18876;DHT22;9570;50.854;13.778;2023-10-09T04:44:09;13.20;99.90
18876;DHT22;9570;50.854;13.778;2023-10-09T04:46:50;13.30;99.90
18876;DHT22;9570;50.854;13.778;2023-10-09T04:49:37;13.40;99.90
18876;DHT22;9570;50.854;13.778;2023-10-09T04:52:27;13.40;99.90
18876;DHT22;9570;50.854;13.778;2023-10-09T04:54:56;13.50;99.90
18876;DHT22;9570;50.854;13.778;2023-10-09T04:57:45;13.70;99.90
18876;DHT22;9570;50.854;13.778;2023-10-09T05:00:26;13.60;99.90
18876;DHT22;9570;50.854;13.778;2023-10-09T05:05:22;13.70;99.90
18876;DHT22;9570;50.854;13.778;2023-10-09T05:08:24;13.80;99.90
18876;DHT22;9570;50.854;13.778;2023-10-09T05:10:57;13.90;99.90
18876;DHT22;9570;50.854;13.778;2023-10-09T05:13:27;13.90;99.90
18876;DHT22;9570;50.854;13.778;2023-10-09T05:16:04;14.00;99.90
18876;DHT22;9570;50.854;13.778;2023-10-09T05:18:30;14.00;99.90
18876;DHT22;9570;50.854;13.778;2023-10-09T05:21:03;14.10;99.90
18876;DHT22;9570;50.854;13.778;2023-10-09T05:23:38;14.20;99.90
18876;DHT22;9570;50.854;13.778;2023-10-09T05:26:09;14.30;99.90
18876;DHT22;9570;50.854;13.778;2023-10-09T05:28:53;14.20;99.90
18876;DHT22;9570;50.854;13.778;2023-10-09T05:31:23;14.20;99.90
18876;DHT22;9570;50.854;13.778;2023-10-09T05:34:08;14.20;99.90
18876;DHT22;9570;50.854;13.778;2023-10-09T05:36:33;14.30;99.90
18876;DHT22;9570;50.854;13.778;2023-10-09T05:39:01;14.40;99.90
18876;DHT22;9570;50.854;13.778;2023-10-09T05:41:45;14.30;99.90
18876;DHT22;9570;50.854;13.778;2023-10-09T05:44:17;14.30;99.90
18876;DHT22;9570;50.854;13.778;2023-10-09T05:47:02;14.30;99.90
18876;DHT22;9570;50.854;13.778;2023-10-09T05:49:46;14.30;99.90
18876;DHT22;9570;50.854;13.778;2023-10-09T05:52:13;14.30;99.90
18876;DHT22;9570;50.854;13.778;2023-10-09T05:54:57;14.40;99.90
18876;DHT22;9570;50.854;13.778;2023-10-09T05:57:45;14.30;99.90
18876;DHT22;9570;50.854;13.778;2023-10-09T06:00:29;14.30;99.90
18876;DHT22;9570;50.854;13.778;2023-10-09T06:03:13;14.40;99.90
18876;DHT22;9570;50.854;13.778;2023-10-09T06:06:02;14.30;99.90
18876;DHT22;9570;50.854;13.778;2023-10-09T06:08:30;14.20;99.90
18876;DHT22;9570;50.854;13.778;2023-10-09T06:11:09;14.30;99.90
18876;DHT22;9570;50.854;13.778;2023-10-09T06:13:58;14.40;99.90
18876;DHT22;9570;50.854;13.778;2023-10-09T06:16:30;14.40;99.90
18876;DHT22;9570;50.854;13.778;2023-10-09T06:19:28;14.50;99.90
18876;DHT22;9570;50.854;13.778;2023-10-09T06:21:55;14.50;99.90
18876;DHT22;9570;50.854;13.778;2023-10-09T06:24:40;14.50;99.90
18876;DHT22;9570;50.854;13.778;2023-10-09T06:27:22;14.50;99.90
18876;DHT22;9570;50.854;13.778;2023-10-09T06:30:11;14.40;99.90
18876;DHT22;9570;50.854;13.778;2023-10-09T06:32:49;14.30;99.90
18876;DHT22;9570;50.854;13.778;2023-10-09T06:35:20;14.30;99.90
18876;DHT22;9570;50.854;13.778;2023-10-09T06:37:55;14.30;99.90
18876;DHT22;9570;50.854;13.778;2023-10-09T06:40:28;14.20;99.90
18876;DHT22;9570;50.854;13.778;2023-10-09T06:43:12;14.20;99.90
18876;DHT22;9570;50.854;13.778;2023-10-09T06:45:45;14.20;99.90
18876;DHT22;9570;50.854;13.778;2023-10-09T06:48:13;14.30;99.90
18876;DHT22;9570;50.854;13.778;2023-10-09T06:50:58;14.30;99.90
18876;DHT22;9570;50.854;13.778;2023-10-09T06:53:41;14.30;99.90
18876;DHT22;9570;50.854;13.778;2023-10-09T06:56:20;14.40;99.90
18876;DHT22;9570;50.854;13.778;2023-10-09T06:58:55;14.40;99.90
18876;DHT22;9570;50.854;13.778;2023-10-09T07:01:23;14.30;99.90
18876;DHT22;9570;50.854;13.778;2023-10-09T07:04:07;14.40;99.90
18876;DHT22;9570;50.854;13.778;2023-10-09T07:06:44;14.40;99.90
18876;DHT22;9570;50.854;13.778;2023-10-09T07:09:10;14.40;99.90
18876;DHT22;9570;50.854;13.778;2023-10-09T07:11:37;14.30;99.90
18876;DHT22;9570;50.854;13.778;2023-10-09T07:14:09;14.30;99.90
18876;DHT22;9570;50.854;13.778;2023-10-09T07:16:55;14.30;99.90
18876;DHT22;9570;50.854;13.778;2023-10-09T07:19:23;14.30;99.90
18876;DHT22;9570;50.854;13.778;2023-10-09T07:22:08;14.30;99.90
18876;DHT22;9570;50.854;13.778;2023-10-09T07:24:52;14.30;99.90
18876;DHT22;9570;50.854;13.778;2023-10-09T07:27:21;14.30;99.90
18876;DHT22;9570;50.854;13.778;2023-10-09T07:30:08;14.30;99.90
18876;DHT22;9570;50.854;13.778;2023-10-09T07:33:00;14.40;99.90
18876;DHT22;9570;50.854;13.778;2023-10-09T07:35:32;14.30;99.90
18876;DHT22;9570;50.854;13.778;2023-10-09T07:38:11;14.40;99.90
18876;DHT22;9570;50.854;13.778;2023-10-09T07:40:41;14.40;99.90
18876;DHT22;9570;50.854;13.778;2023-10-09T07:43:41;14.50;99.90
18876;DHT22;9570;50.854;13.778;2023-10-09T07:46:14;14.40;99.90
18876;DHT22;9570;50.854;13.778;2023-10-09T07:48:56;14.20;99.90
18876;DHT22;9570;50.854;13.778;2023-10-09T07:51:23;14.30;99.90
18876;DHT22;9570;50.854;13.778;2023-10-09T07:53:52;14.20;99.90
18876;DHT22;9570;50.854;13.778;2023-10-09T07:56:37;14.10;99.90
18876;DHT22;9570;50.854;13.778;2023-10-09T07:59:18;14.00;99.90
18876;DHT22;9570;50.854;13.778;2023-10-09T08:01:46;14.10;99.90
18876;DHT22;9570;50.854;13.778;2023-10-09T08:04:22;14.20;99.90
18876;DHT22;9570;50.854;13.778;2023-10-09T08:07:11;14.20;99.90
18876;DHT22;9570;50.854;13.778;2023-10-09T08:10:03;14.20;99.90
18876;DHT22;9570;50.854;13.778;2023-10-09T08:12:44;14.20;99.90
18876;DHT22;9570;50.854;13.778;2023-10-09T08:15:09;14.10;99.90
18876;DHT22;9570;50.854;13.778;2023-10-09T08:17:58;14.20;99.90
18876;DHT22;9570;50.854;13.778;2023-10-09T08:20:39;14.10;99.90
18876;DHT22;9570;50.854;13.778;2023-10-09T08:23:23;14.10;99.90
18876;DHT22;9570;50.854;13.778;2023-10-09T08:26:02;14.10;99.90
18876;DHT22;9570;50.854;13.778;2023-10-09T08:28:44;14.20;99.90
18876;DHT22;9570;50.854;13.778;2023-10-09T08:31:15;14.30;99.90
18876;DHT22;9570;50.854;13.778;2023-10-09T08:34:02;14.30;99.90
18876;DHT22;9570;50.854;13.778;2023-10-09T08:36:29;14.30;99.90
18876;DHT22;9570;50.854;13.778;2023-10-09T08:39:04;14.20;99.90
18876;DHT22;9570;50.854;13.778;2023-10-09T08:41:42;14.20;99.90
18876;DHT22;9570;50.854;13.778;2023-10-09T08:44:09;14.30;99.90
18876;DHT22;9570;50.854;13.778;2023-10-09T08:46:37;14.30;99.90
18876;DHT22;9570;50.854;13.778;2023-10-09T08:49:03;14.20;99.90
18876;DHT22;9570;50.854;13.778;2023-10-09T08:51:30;14.30;99.90
18876;DHT22;9570;50.854;13.778;2023-10-09T08:53:58;14.30;99.90
18876;DHT22;9570;50.854;13.778;2023-10-09T08:56:23;14.30;99.90
18876;DHT22;9570;50.854;13.778;2023-10-09T08:58:50;14.20;99.90
18876;DHT22;9570;50.854;13.778;2023-10-09T09:01:17;14.10;99.90
18876;DHT22;9570;50.854;13.778;2023-10-09T09:03:46;14.10;99.90
18876;DHT22;9570;50.854;13.778;2023-10-09T09:06:11;14.10;99.90
18876;DHT22;9570;50.854;13.778;2023-10-09T09:08:39;14.10;99.90
18876;DHT22;9570;50.854;13.778;2023-10-09T09:11:09;14.10;99.90
18876;DHT22;9570;50.854;13.778;2023-10-09T09:13:42;14.10;99.90
18876;DHT22;9570;50.854;13.778;2023-10-09T09:16:24;14.00;99.90
18876;DHT22;9570;50.854;13.778;2023-10-09T09:21:31;14.10;99.90
18876;DHT22;9570;50.854;13.778;2023-10-09T09:24:04;14.10;99.90
18876;DHT22;9570;50.854;13.778;2023-10-09T09:26:52;14.10;99.90
18876;DHT22;9570;50.854;13.778;2023-10-09T09:29:45;14.00;99.90
18876;DHT22;9570;50.854;13.778;2023-10-09T09:32:30;14.00;99.90
18876;DHT22;9570;50.854;13.778;2023-10-09T09:35:02;14.10;99.90
18876;DHT22;9570;50.854;13.778;2023-10-09T09:37:31;14.10;99.90
18876;DHT22;9570;50.854;13.778;2023-10-09T09:40:17;14.00;99.90
18876;DHT22;9570;50.854;13.778;2023-10-09T09:43:01;13.90;99.90
18876;DHT22;9570;50.854;13.778;2023-10-09T09:45:37;13.80;99.90
18876;DHT22;9570;50.854;13.778;2023-10-09T09:48:04;13.90;99.90
18876;DHT22;9570;50.854;13.778;2023-10-09T09:50:32;13.90;99.90
18876;DHT22;9570;50.854;13.778;2023-10-09T09:52:59;14.00;99.90
18876;DHT22;9570;50.854;13.778;2023-10-09T09:55:28;14.00;99.90
18876;DHT22;9570;50.854;13.778;2023-10-09T09:57:57;14.00;99.90
18876;DHT22;9570;50.854;13.778;2023-10-09T10:00:27;13.90;99.90
18876;DHT22;9570;50.854;13.778;2023-10-09T10:03:31;13.90;99.90
18876;DHT22;9570;50.854;13.778;2023-10-09T10:06:00;13.90;99.90
18876;DHT22;9570;50.854;13.778;2023-10-09T10:08:30;13.90;99.90
18876;DHT22;9570;50.854;13.778;2023-10-09T10:10:58;13.90;99.90
18876;DHT22;9570;50.854;13.778;2023-10-09T10:16:12;13.90;99.90
18876;DHT22;9570;50.854;13.778;2023-10-09T10:18:58;13.90;99.90
18876;DHT22;9570;50.854;13.778;2023-10-09T10:21:33;14.00;99.90
18876;DHT22;9570;50.854;13.778;2023-10-09T10:32:57;14.00;99.90
18876;DHT22;9570;50.854;13.778;2023-10-09T10:35:24;14.10;99.90
18876;DHT22;9570;50.854;13.778;2023-10-09T10:38:24;14.10;99.90
18876;DHT22;9570;50.854;13.778;2023-10-09T10:40:50;14.10;99.90
18876;DHT22;9570;50.854;13.778;2023-10-09T10:43:36;14.10;99.90
18876;DHT22;9570;50.854;13.778;2023-10-09T10:46:21;14.20;99.90
18876;DHT22;9570;50.854;13.778;2023-10-09T10:49:00;14.40;99.90
18876;DHT22;9570;50.854;13.778;2023-10-09T10:51:40;14.40;99.90
18876;DHT22;9570;50.854;13.778;2023-10-09T10:54:07;14.50;99.90
18876;DHT22;9570;50.854;13.778;2023-10-09T10:56:51;14.60;99.90
18876;DHT22;9570;50.854;13.778;2023-10-09T10:59:18;14.60;99.90
18876;DHT22;9570;50.854;13.778;2023-10-09T11:01:53;14.60;99.90
18876;DHT22;9570;50.854;13.778;2023-10-09T11:04:27;14.50;99.90
18876;DHT22;9570;50.854;13.778;2023-10-09T11:06:56;14.60;99.90
18876;DHT22;9570;50.854;13.778;2023-10-09T11:09:48;14.60;99.90
18876;DHT22;9570;50.854;13.778;2023-10-09T11:12:31;14.60;99.90
18876;DHT22;9570;50.854;13.778;2023-10-09T11:15:34;14.60;99.90
18876;DHT22;9570;50.854;13.778;2023-10-09T11:18:21;14.60;99.90
18876;DHT22;9570;50.854;13.778;2023-10-09T11:20:55;14.60;99.90
18876;DHT22;9570;50.854;13.778;2023-10-09T11:23:30;14.60;99.90
18876;DHT22;9570;50.854;13.778;2023-10-09T11:25:59;14.50;99.90
18876;DHT22;9570;50.854;13.778;2023-10-09T11:28:44;14.50;99.90
18876;DHT22;9570;50.854;13.778;2023-10-09T11:31:15;14.40;99.90
18876;DHT22;9570;50.854;13.778;2023-10-09T11:33:50;14.40;99.90
18876;DHT22;9570;50.854;13.778;2023-10-09T11:36:21;14.60;99.90
18876;DHT22;9570;50.854;13.778;2023-10-09T11:38:57;14.60;99.90
18876;DHT22;9570;50.854;13.778;2023-10-09T11:41:42;14.50;99.90
18876;DHT22;9570;50.854;13.778;2023-10-09T11:44:08;14.40;99.90
18876;DHT22;9570;50.854;13.778;2023-10-09T11:47:00;14.40;99.90
18876;DHT22;9570;50.854;13.778;2023-10-09T11:49:51;14.50;99.90
18876;DHT22;9570;50.854;13.778;2023-10-09T11:52:28;14.50;99.90
18876;DHT22;9570;50.854;13.778;2023-10-09T11:54:57;14.60;99.90
18876;DHT22;9570;50.854;13.778;2023-10-09T11:57:24;14.70;99.90
18876;DHT22;9570;50.854;13.778;2023-10-09T11:59:56;14.80;99.90
18876;DHT22;9570;50.854;13.778;2023-10-09T12:02:23;14.90;99.90
18876;DHT22;9570;50.854;13.778;2023-10-09T12:04:48;15.00;99.90
18876;DHT22;9570;50.854;13.778;2023-10-09T12:07:14;15.00;99.90
18876;DHT22;9570;50.854;13.778;2023-10-09T12:09:40;15.00;99.90
18876;DHT22;9570;50.854;13.778;2023-10-09T12:12:07;15.00;99.90
18876;DHT22;9570;50.854;13.778;2023-10-09T12:14:35;15.00;99.90
18876;DHT22;9570;50.854;13.778;2023-10-09T12:17:04;14.90;99.90
18876;DHT22;9570;50.854;13.778;2023-10-09T12:19:37;15.00;99.90
18876;DHT22;9570;50.854;13.778;2023-10-09T12:22:05;15.10;99.90
18876;DHT22;9570;50.854;13.778;2023-10-09T12:24:32;15.20;99.90
18876;DHT22;9570;50.854;13.778;2023-10-09T12:26:58;15.00;99.90
18876;DHT22;9570;50.854;13.778;2023-10-09T12:29:24;14.90;99.90
18876;DHT22;9570;50.854;13.778;2023-10-09T12:31:54;14.80;99.90
18876;DHT22;9570;50.854;13.778;2023-10-09T12:34:24;14.70;99.90
18876;DHT22;9570;50.854;13.778;2023-10-09T12:36:53;14.70;99.90
18876;DHT22;9570;50.854;13.778;2023-10-09T12:39:19;14.70;99.90
18876;DHT22;9570;50.854;13.778;2023-10-09T12:41:45;14.70;99.90
18876;DHT22;9570;50.854;13.778;2023-10-09T12:44:10;14.80;99.90
18876;DHT22;9570;50.854;13.778;2023-10-09T12:46:40;14.80;99.90
18876;DHT22;9570;50.854;13.778;2023-10-09T12:49:06;14.90;99.90
18876;DHT22;9570;50.854;13.778;2023-10-09T12:51:32;15.00;99.90
18876;DHT22;9570;50.854;13.778;2023-10-09T12:53:57;15.00;99.90
18876;DHT22;9570;50.854;13.778;2023-10-09T12:56:24;15.10;99.90
18876;DHT22;9570;50.854;13.778;2023-10-09T12:58:58;15.20;99.90
18876;DHT22;9570;50.854;13.778;2023-10-09T13:01:26;15.10;99.90
18876;DHT22;9570;50.854;13.778;2023-10-09T13:03:54;15.10;99.90
18876;DHT22;9570;50.854;13.778;2023-10-09T13:06:20;15.00;99.90
18876;DHT22;9570;50.854;13.778;2023-10-09T13:08:49;15.00;99.90
18876;DHT22;9570;50.854;13.778;2023-10-09T13:11:17;15.00;99.90
18876;DHT22;9570;50.854;13.778;2023-10-09T13:13:45;15.00;99.90
18876;DHT22;9570;50.854;13.778;2023-10-09T13:16:17;15.00;99.90
18876;DHT22;9570;50.854;13.778;2023-10-09T13:18:49;15.00;99.90
18876;DHT22;9570;50.854;13.778;2023-10-09T13:21:26;15.00;99.90
18876;DHT22;9570;50.854;13.778;2023-10-09T13:23:52;14.90;99.90
18876;DHT22;9570;50.854;13.778;2023-10-09T13:26:20;14.90;99.90
18876;DHT22;9570;50.854;13.778;2023-10-09T13:28:54;14.90;99.90
18876;DHT22;9570;50.854;13.778;2023-10-09T13:31:21;14.90;99.90
18876;DHT22;9570;50.854;13.778;2023-10-09T13:33:50;14.80;99.90
18876;DHT22;9570;50.854;13.778;2023-10-09T13:36:19;14.70;99.90
18876;DHT22;9570;50.854;13.778;2023-10-09T13:38:55;14.70;99.90
18876;DHT22;9570;50.854;13.778;2023-10-09T13:41:22;14.80;99.90
18876;DHT22;9570;50.854;13.778;2023-10-09T13:43:48;14.80;99.90
18876;DHT22;9570;50.854;13.778;2023-10-09T13:46:17;14.70;99.90
18876;DHT22;9570;50.854;13.778;2023-10-09T13:48:43;14.80;99.90
18876;DHT22;9570;50.854;13.778;2023-10-09T13:51:11;14.90;99.90
18876;DHT22;9570;50.854;13.778;2023-10-09T13:53:43;14.90;99.90
18876;DHT22;9570;50.854;13.778;2023-10-09T13:56:17;15.00;99.90
18876;DHT22;9570;50.854;13.778;2023-10-09T13:58:50;15.00;99.90
18876;DHT22;9570;50.854;13.778;2023-10-09T14:01:19;15.00;99.90
18876;DHT22;9570;50.854;13.778;2023-10-09T14:03:59;15.00;99.90
18876;DHT22;9570;50.854;13.778;2023-10-09T14:06:25;15.00;99.90
18876;DHT22;9570;50.854;13.778;2023-10-09T14:09:01;15.00;99.90
18876;DHT22;9570;50.854;13.778;2023-10-09T14:11:31;15.00;99.90
18876;DHT22;9570;50.854;13.778;2023-10-09T14:13:57;14.70;99.90
18876;DHT22;9570;50.854;13.778;2023-10-09T14:16:26;14.70;99.90
18876;DHT22;9570;50.854;13.778;2023-10-09T14:18:55;14.70;99.90
18876;DHT22;9570;50.854;13.778;2023-10-09T14:21:29;14.70;99.90
18876;DHT22;9570;50.854;13.778;2023-10-09T14:24:04;14.70;99.90
18876;DHT22;9570;50.854;13.778;2023-10-09T14:26:40;14.80;99.90
18876;DHT22;9570;50.854;13.778;2023-10-09T14:29:07;14.80;99.90
18876;DHT22;9570;50.854;13.778;2023-10-09T14:31:33;14.80;99.90
18876;DHT22;9570;50.854;13.778;2023-10-09T14:34:04;14.90;99.90
18876;DHT22;9570;50.854;13.778;2023-10-09T14:36:30;14.90;99.90
18876;DHT22;9570;50.854;13.778;2023-10-09T14:38:59;14.80;99.90
18876;DHT22;9570;50.854;13.778;2023-10-09T14:41:26;14.80;99.90
18876;DHT22;9570;50.854;13.778;2023-10-09T14:43:53;14.70;99.90
18876;DHT22;9570;50.854;13.778;2023-10-09T14:46:19;14.70;99.90
18876;DHT22;9570;50.854;13.778;2023-10-09T14:48:55;14.60;99.90
18876;DHT22;9570;50.854;13.778;2023-10-09T14:51:24;14.60;99.90
18876;DHT22;9570;50.854;13.778;2023-10-09T14:53:56;14.80;99.90
18876;DHT22;9570;50.854;13.778;2023-10-09T14:56:23;14.80;99.90
18876;DHT22;9570;50.854;13.778;2023-10-09T14:58:58;14.70;99.90
18876;DHT22;9570;50.854;13.778;2023-10-09T15:01:25;14.70;99.90
18876;DHT22;9570;50.854;13.778;2023-10-09T15:03:57;14.70;99.90
18876;DHT22;9570;50.854;13.778;2023-10-09T15:06:27;14.70;99.90
18876;DHT22;9570;50.854;13.778;2023-10-09T15:08:59;14.70;99.90
18876;DHT22;9570;50.854;13.778;2023-10-09T15:11:33;14.70;99.90
18876;DHT22;9570;50.854;13.778;2023-10-09T15:13:59;14.70;99.90
18876;DHT22;9570;50.854;13.778;2023-10-09T15:16:25;14.70;99.90
18876;DHT22;9570;50.854;13.778;2023-10-09T15:18:53;14.60;99.90
18876;DHT22;9570;50.854;13.778;2023-10-09T15:21:20;14.60;99.90
18876;DHT22;9570;50.854;13.778;2023-10-09T15:23:49;14.60;99.90
18876;DHT22;9570;50.854;13.778;2023-10-09T15:26:16;14.50;99.90
18876;DHT22;9570;50.854;13.778;2023-10-09T15:28:42;14.50;99.90
18876;DHT22;9570;50.854;13.778;2023-10-09T15:31:08;14.50;99.90
18876;DHT22;9570;50.854;13.778;2023-10-09T15:33:37;14.50;99.90
18876;DHT22;9570;50.854;13.778;2023-10-09T15:36:12;14.40;99.90
18876;DHT22;9570;50.854;13.778;2023-10-09T15:38:38;14.50;99.90
18876;DHT22;9570;50.854;13.778;2023-10-09T15:41:03;14.50;99.90
18876;DHT22;9570;50.854;13.778;2023-10-09T15:43:31;14.50;99.90
18876;DHT22;9570;50.854;13.778;2023-10-09T15:45:58;14.50;99.90
18876;DHT22;9570;50.854;13.778;2023-10-09T15:48:24;14.40;99.90
18876;DHT22;9570;50.854;13.778;2023-10-09T15:50:50;14.50;99.90
18876;DHT22;9570;50.854;13.778;2023-10-09T15:53:20;14.50;99.90
18876;DHT22;9570;50.854;13.778;2023-10-09T15:55:47;14.50;99.90
18876;DHT22;9570;50.854;13.778;2023-10-09T15:58:16;14.60;99.90
18876;DHT22;9570;50.854;13.778;2023-10-09T16:00:43;14.60;99.90
18876;DHT22;9570;50.854;13.778;2023-10-09T16:03:09;14.70;99.90
18876;DHT22;9570;50.854;13.778;2023-10-09T16:05:35;14.70;99.90
18876;DHT22;9570;50.854;13.778;2023-10-09T16:08:02;14.70;99.90
18876;DHT22;9570;50.854;13.778;2023-10-09T16:10:29;14.80;99.90
18876;DHT22;9570;50.854;13.778;2023-10-09T16:12:56;14.70;99.90
18876;DHT22;9570;50.854;13.778;2023-10-09T16:15:23;14.70;99.90
18876;DHT22;9570;50.854;13.778;2023-10-09T16:17:50;14.70;99.90
18876;DHT22;9570;50.854;13.778;2023-10-09T16:20:29;14.80;99.90
18876;DHT22;9570;50.854;13.778;2023-10-09T16:22:57;14.80;99.90